Time;durP1;ratioP1;P1;durP2;ratioP2;P2;SDS_P1;SDS_P2;PMS_P1;PMS_P2;Temp;Humidity;BMP_temperature;BMP_pressure;BME280_temperature;BME280_humidity;BME280_pressure;Samples;Min_cycle;Max_cycle;Signal;HPM_P1;HPM_P2
2022/04/20 00:00:20;;;;;;;7.70;6.10;;;;;;;2.07;75.30;99211.75;5062556;28;20478;-90
2022/04/20 00:02:46;;;;;;;9.73;6.22;;;;;;;2.00;74.70;99197.72;5045894;28;20560;-92
2022/04/20 00:05:12;;;;;;;6.78;4.97;;;;;;;2.09;74.96;99209.69;5062591;28;20028;-91
2022/04/20 00:07:38;;;;;;;6.82;5.15;;;;;;;2.05;74.93;99199.72;5078122;28;20478;-91
2022/04/20 00:10:05;;;;;;;9.27;5.72;;;;;;;2.17;74.23;99205.94;5045657;28;20020;-91
2022/04/20 00:12:30;;;;;;;6.72;5.25;;;;;;;2.24;74.53;99209.34;5063267;28;20103;-92
2022/04/20 00:14:56;;;;;;;9.02;5.93;;;;;;;2.07;74.07;99187.84;5061543;28;20469;-92
2022/04/20 00:17:21;;;;;;;8.60;5.80;;;;;;;2.05;74.36;99189.09;5061386;28;20004;-92
2022/04/20 00:19:47;;;;;;;9.27;5.63;;;;;;;1.99;74.24;99182.81;5061754;28;20035;-92
2022/04/20 00:22:12;;;;;;;8.40;5.35;;;;;;;2.02;73.74;99190.34;5044950;28;20020;-92
2022/04/20 00:24:37;;;;;;;5.15;4.65;;;;;;;1.92;73.71;99190.84;5044936;28;20039;-92
2022/04/20 00:27:03;;;;;;;6.10;4.68;;;;;;;1.79;73.55;99186.44;5061625;28;20375;-92
2022/04/20 00:29:29;;;;;;;13.23;5.10;;;;;;;1.95;73.41;99201.03;5061958;28;20024;-91
2022/04/20 00:31:54;;;;;;;8.05;5.40;;;;;;;2.07;72.45;99195.81;5062025;28;20031;-91
2022/04/20 00:34:19;;;;;;;8.18;5.47;;;;;;;2.07;72.98;99206.44;5045481;28;20042;-92
2022/04/20 00:36:50;;;;;;;9.05;6.00;;;;;;;2.02;73.14;99203.63;5044563;28;20069;-90
2022/04/20 00:39:16;;;;;;;8.05;4.75;;;;;;;1.90;74.25;99208.00;5045509;28;20135;-91
2022/04/20 00:41:41;;;;;;;7.78;5.13;;;;;;;1.78;73.99;99208.69;5062595;28;20028;-92
2022/04/20 00:44:07;;;;;;;7.75;4.88;;;;;;;1.76;73.66;99210.75;5062009;28;20054;-91
2022/04/20 00:46:32;;;;;;;7.78;4.93;;;;;;;1.63;73.63;99200.22;5061334;28;20413;-90
2022/04/20 00:48:58;;;;;;;5.93;4.65;;;;;;;1.65;73.78;99208.00;5060180;28;20058;-91
2022/04/20 00:51:23;;;;;;;7.13;4.93;;;;;;;1.56;74.27;99194.16;5045027;28;20038;-91
2022/04/20 00:53:49;;;;;;;5.70;4.18;;;;;;;1.74;73.58;99204.88;5061011;28;20027;-91
2022/04/20 00:56:14;;;;;;;7.20;4.57;;;;;;;1.67;73.88;99203.28;5060586;28;20027;-91
2022/04/20 00:58:40;;;;;;;7.72;4.53;;;;;;;1.64;73.64;99198.38;5043608;28;20028;-90
2022/04/20 01:01:06;;;;;;;7.72;4.72;;;;;;;1.65;73.56;99221.25;5044772;28;20028;-90
2022/04/20 01:03:31;;;;;;;7.40;4.75;;;;;;;1.54;73.88;99212.16;5044510;28;20035;-91
2022/04/20 01:05:57;;;;;;;6.72;4.00;;;;;;;1.61;73.66;99220.84;5044322;28;20028;-91
2022/04/20 01:08:22;;;;;;;8.00;3.97;;;;;;;1.53;74.00;99213.16;5044066;28;20023;-91
2022/04/20 01:10:48;;;;;;;6.13;3.92;;;;;;;1.56;73.42;99210.91;5045004;28;20032;-91
2022/04/20 01:13:14;;;;;;;6.32;4.22;;;;;;;1.56;74.47;99212.75;5077866;28;20055;-91
2022/04/20 01:15:39;;;;;;;6.80;4.88;;;;;;;1.50;74.60;99213.59;5043931;28;20031;-91
2022/04/20 01:18:15;;;;;;;6.82;4.65;;;;;;;1.56;74.62;99208.25;5043900;28;20151;-91
2022/04/20 01:20:41;;;;;;;6.43;4.25;;;;;;;1.59;74.67;99222.91;5060807;28;20728;-92
2022/04/20 01:23:06;;;;;;;6.30;4.45;;;;;;;1.48;74.41;99203.19;5043649;28;20030;-92
2022/04/20 01:25:32;;;;;;;7.47;4.30;;;;;;;1.42;75.02;99190.78;5043689;28;20028;-91
2022/04/20 01:27:57;;;;;;;7.70;4.53;;;;;;;1.35;75.26;99180.22;5043704;28;20421;-90
2022/04/20 01:30:23;;;;;;;8.82;4.28;;;;;;;1.33;74.39;99187.56;5043466;28;20028;-92
2022/04/20 01:32:48;;;;;;;7.07;4.53;;;;;;;1.38;74.71;99185.06;5044964;28;20024;-92
2022/04/20 01:35:51;;;;;;;9.38;4.80;;;;;;;1.49;74.24;99185.41;5043867;28;20406;-91
2022/04/20 01:44:41;;;;;;;6.53;4.22;;;;;;;1.46;73.86;99172.59;5079599;28;20051;-91
2022/04/20 01:47:07;;;;;;;8.15;4.10;;;;;;;1.58;73.57;99176.19;5043919;28;20032;-92
2022/04/20 01:49:33;;;;;;;7.10;4.15;;;;;;;1.52;73.61;99179.69;5061282;28;20026;-91
2022/04/20 01:51:58;;;;;;;6.65;4.10;;;;;;;1.50;73.87;99177.25;5044293;28;20488;-92
2022/04/20 01:54:24;;;;;;;5.45;4.05;;;;;;;1.58;73.95;99189.47;5061358;28;20074;-91
2022/04/20 01:56:50;;;;;;;6.32;4.53;;;;;;;1.65;73.81;99184.09;5060496;28;20031;-92
2022/04/20 01:59:15;;;;;;;7.85;4.40;;;;;;;1.76;73.40;99186.06;5060625;28;20020;-92
2022/04/20 02:05:03;;;;;;;9.90;4.85;;;;;;;1.64;73.79;99193.06;5096185;28;20039;-92
2022/04/20 02:10:51;;;;;;;8.65;4.30;;;;;;;1.39;73.85;99189.38;5099372;28;20074;-91
2022/04/20 02:13:16;;;;;;;6.30;4.32;;;;;;;1.30;73.96;99190.63;5047326;28;20043;-91
2022/04/20 02:15:52;;;;;;;8.18;4.90;;;;;;;1.28;74.88;99199.81;5052119;28;20012;-90
2022/04/20 02:21:38;;;;;;;7.32;4.68;;;;;;;1.08;75.41;99195.44;5070308;28;20054;-93
2022/04/20 02:24:04;;;;;;;;;;;;;;;1.15;75.09;99201.53;5064095;28;20044;-91
2022/04/20 02:26:29;;;;;;;5.38;3.95;;;;;;;1.31;73.89;99205.53;5081384;28;20294;-92
2022/04/20 02:28:55;;;;;;;5.82;4.45;;;;;;;1.36;73.68;99197.72;5064581;28;20035;-91
2022/04/20 02:31:21;;;;;;;7.20;4.35;;;;;;;1.54;73.39;99201.53;5047455;28;20020;-92
2022/04/20 02:33:47;;;;;;;6.00;4.70;;;;;;;1.62;73.13;99209.22;5064599;28;20486;-91
2022/04/20 02:36:12;;;;;;;12.07;4.63;;;;;;;1.55;73.21;99197.84;5064603;28;20486;-91
2022/04/20 02:38:39;;;;;;;6.40;4.82;;;;;;;1.40;73.52;99196.28;5047432;28;20036;-92
2022/04/20 02:41:04;;;;;;;7.30;4.70;;;;;;;1.39;74.23;99199.13;5064446;28;20478;-91
2022/04/20 02:43:30;;;;;;;8.10;4.68;;;;;;;1.27;74.21;99195.56;5047176;28;20082;-91
2022/04/20 02:45:56;;;;;;;6.47;4.85;;;;;;;1.30;73.65;99198.59;5064612;28;20020;-92
2022/04/20 02:48:21;;;;;;;6.38;4.40;;;;;;;1.26;74.08;99197.38;5047338;28;20091;-92
2022/04/20 02:50:48;;;;;;;7.50;5.13;;;;;;;1.19;74.28;99197.41;5047327;28;20032;-89
2022/04/20 02:53:13;;;;;;;7.15;4.70;;;;;;;1.17;74.20;99191.50;5046481;28;20043;-92
2022/04/20 02:55:40;;;;;;;7.68;4.43;;;;;;;1.29;73.32;99183.72;5047028;28;20028;-92
2022/04/20 02:58:06;;;;;;;5.65;4.85;;;;;;;1.34;73.32;99180.41;5062927;28;20024;-92
2022/04/20 03:00:31;;;;;;;7.47;4.63;;;;;;;1.31;73.66;99181.66;5047386;28;20075;-90
2022/04/20 03:02:57;;;;;;;5.75;4.60;;;;;;;1.33;73.80;99178.78;5045465;28;20039;-90
2022/04/20 03:05:22;;;;;;;6.18;4.35;;;;;;;1.39;73.00;99177.91;5047074;28;20020;-91
2022/04/20 03:07:48;;;;;;;8.43;5.10;;;;;;;1.27;73.74;99169.84;5046909;28;20012;-90
2022/04/20 03:10:14;;;;;;;13.77;5.78;;;;;;;1.30;74.16;99176.56;5047310;28;20024;-91
2022/04/20 03:12:39;;;;;;;9.25;5.25;;;;;;;1.30;73.43;99169.41;5062528;28;20479;-91
2022/04/20 03:15:06;;;;;;;7.68;5.15;;;;;;;1.26;73.95;99168.22;5047000;28;20032;-92
2022/04/20 03:17:31;;;;;;;8.52;5.70;;;;;;;1.18;73.97;99163.16;5047191;28;20027;-92
2022/04/20 03:19:56;;;;;;;11.23;5.68;;;;;;;1.07;74.28;99172.59;5047346;28;20027;-90
2022/04/20 03:22:22;;;;;;;9.60;5.57;;;;;;;1.01;74.63;99171.59;5045124;28;20032;-90
2022/04/20 03:24:48;;;;;;;8.25;5.63;;;;;;;0.94;74.13;99175.31;5045498;28;20032;-91
2022/04/20 03:27:13;;;;;;;8.48;5.40;;;;;;;1.16;73.72;99171.34;5046042;28;20028;-91
2022/04/20 03:29:41;;;;;;;9.20;4.95;;;;;;;1.11;73.76;99175.66;5046242;28;20027;-90
2022/04/20 03:32:11;;;;;;;6.95;5.07;;;;;;;1.19;73.73;99180.69;5046684;28;20108;-91
2022/04/20 03:34:37;;;;;;;9.02;5.22;;;;;;;1.14;73.81;99189.31;5062097;28;20039;-91
2022/04/20 03:37:04;;;;;;;25.80;6.95;;;;;;;1.14;73.25;99183.16;5062292;28;20610;-91
2022/04/20 03:39:29;;;;;;;9.68;6.00;;;;;;;1.22;73.28;99204.13;5045870;28;20581;-92
2022/04/20 03:41:55;;;;;;;15.23;7.20;;;;;;;1.09;73.94;99198.91;5046736;28;20056;-88
2022/04/20 03:44:20;;;;;;;9.32;6.55;;;;;;;0.95;74.20;99198.94;5041977;28;20032;-92
2022/04/20 03:46:46;;;;;;;14.15;8.30;;;;;;;0.96;73.50;99186.53;5042253;28;20399;-91
2022/04/20 03:49:11;;;;;;;14.73;6.95;;;;;;;0.95;73.83;99195.47;5042039;28;20029;-90
2022/04/20 03:51:37;;;;;;;13.00;7.25;;;;;;;0.89;74.41;99197.13;5042491;28;20048;-89
2022/04/20 03:54:02;;;;;;;23.60;7.03;;;;;;;0.85;74.73;99201.25;5025400;28;20031;-93
2022/04/20 03:57:03;;;;;;;10.90;6.85;;;;;;;0.81;74.23;99200.03;5041854;28;20029;-91
2022/04/20 03:59:13;;;;;;;14.25;8.48;;;;;;;0.91;74.70;99218.13;5047701;28;20047;-91
2022/04/20 04:01:39;;;;;;;17.17;8.80;;;;;;;1.01;74.15;99216.66;5042042;28;20478;-90
2022/04/20 04:04:05;;;;;;;14.73;7.63;;;;;;;0.91;74.81;99218.13;5042643;28;20020;-90
2022/04/20 04:06:30;;;;;;;18.27;8.13;;;;;;;0.93;74.37;99216.09;5058351;28;20032;-94
2022/04/20 04:08:57;;;;;;;12.57;6.90;;;;;;;0.93;74.36;99208.94;5043171;28;20465;-91
2022/04/20 04:11:23;;;;;;;14.07;7.75;;;;;;;1.03;74.22;99223.59;5058762;28;20020;-91
2022/04/20 04:13:48;;;;;;;15.02;8.45;;;;;;;0.98;73.97;99206.50;5058808;28;20376;-90
2022/04/20 04:16:14;;;;;;;17.50;8.30;;;;;;;0.98;73.86;99203.84;5037803;28;20032;-92
2022/04/20 04:18:39;;;;;;;24.83;10.15;;;;;;;1.21;73.80;99221.09;5040235;28;20056;-91
2022/04/20 04:21:22;;;;;;;12.73;8.25;;;;;;;1.23;73.74;99218.22;5042732;28;20036;-91
2022/04/20 04:23:48;;;;;;;13.73;7.85;;;;;;;1.01;74.13;99200.75;5044695;28;20035;-91
2022/04/20 04:26:13;;;;;;;21.58;9.55;;;;;;;1.18;74.19;99232.09;5043036;28;20032;-91
2022/04/20 04:28:42;;;;;;;13.60;8.60;;;;;;;1.28;73.79;99213.91;5027358;28;20070;-91
2022/04/20 04:31:10;;;;;;;19.08;8.52;;;;;;;1.35;73.60;99203.25;5062850;28;20111;-92
2022/04/20 04:33:36;;;;;;;20.90;10.27;;;;;;;1.46;73.67;99217.69;5029607;28;20467;-91
2022/04/20 04:36:02;;;;;;;15.43;9.95;;;;;;;1.58;73.48;99216.00;5042077;28;20116;-91
2022/04/20 04:38:28;;;;;;;17.40;8.70;;;;;;;1.76;73.04;99228.53;5042197;28;20093;-92
2022/04/20 04:40:56;;;;;;;19.33;9.05;;;;;;;1.78;72.85;99207.88;5061401;28;20029;-91
2022/04/20 04:43:23;;;;;;;18.20;9.43;;;;;;;1.99;72.80;99222.63;5030533;28;20133;-95
2022/04/20 04:48:52;;;;;;;32.65;9.73;;;;;;;2.07;72.30;99206.44;5012772;28;20040;-93
2022/04/20 04:51:20;;;;;;;20.55;10.93;;;;;;;2.28;71.64;99212.38;5032359;28;20025;-92
2022/04/20 04:53:45;;;;;;;25.83;12.27;;;;;;;2.38;72.51;99226.78;5024070;28;20040;-90
2022/04/20 04:56:11;;;;;;;21.70;13.27;;;;;;;2.50;72.13;99231.41;5020733;28;20425;-93
2022/04/20 04:58:36;;;;;;;18.63;10.43;;;;;;;2.35;71.58;99219.28;5029427;28;20028;-95
2022/04/20 05:01:02;;;;;;;27.33;13.27;;;;;;;2.35;71.96;99187.41;5029942;28;20056;-94
2022/04/20 05:03:28;;;;;;;24.13;10.13;;;;;;;2.58;71.15;99204.56;5047510;28;20020;-91
2022/04/20 05:05:53;;;;;;;25.98;10.27;;;;;;;2.54;70.70;99201.50;5029867;28;20039;-93
2022/04/20 05:08:22;;;;;;;21.88;9.90;;;;;;;2.66;70.38;99214.91;5029537;28;20161;-94
2022/04/20 05:10:55;;;;;;;29.58;9.73;;;;;;;2.62;71.17;99198.56;5044964;28;20509;-92
2022/04/20 05:13:23;;;;;;;25.98;10.40;;;;;;;2.71;71.35;99215.03;5046968;28;20070;-94
2022/04/20 05:15:51;;;;;;;20.23;10.52;;;;;;;2.79;71.55;99205.97;5045172;28;20494;-92
2022/04/20 05:18:22;;;;;;;27.98;9.70;;;;;;;2.86;71.22;99209.34;5024893;28;20081;-93
2022/04/20 05:20:48;;;;;;;14.60;9.77;;;;;;;3.09;71.46;99219.31;5038207;28;20039;-90
2022/04/20 05:23:14;;;;;;;22.10;9.00;;;;;;;3.23;70.39;99214.63;5045465;28;20016;-89
2022/04/20 05:25:40;;;;;;;18.95;8.13;;;;;;;3.49;69.56;99223.31;5076931;28;20037;-88
2022/04/20 05:28:06;;;;;;;31.65;10.52;;;;;;;3.49;69.50;99205.50;5060131;28;20024;-90
2022/04/20 05:30:32;;;;;;;21.63;8.07;;;;;;;3.81;67.70;99227.34;5065168;28;20063;-89
2022/04/20 05:33:00;;;;;;;14.40;6.10;;;;;;;4.00;65.33;99209.44;5047841;28;20021;-91
2022/04/20 05:35:27;;;;;;;12.18;6.13;;;;;;;4.08;63.94;99213.63;5047025;28;20475;-91
2022/04/20 05:43:21;;;;;;;10.25;6.05;;;;;;;4.33;62.63;99189.41;5052740;28;20116;-88
2022/04/20 05:45:46;;;;;;;11.45;5.63;;;;;;;4.80;61.92;99208.03;5062665;28;20021;-89
2022/04/20 05:48:14;;;;;;;14.45;8.35;;;;;;;4.95;62.13;99204.88;5056166;28;20036;-87
2022/04/20 05:50:40;;;;;;;14.15;6.60;;;;;;;4.96;62.16;99198.50;5047432;28;20016;-90
2022/04/20 05:53:07;;;;;;;14.40;6.68;;;;;;;5.27;60.83;99201.75;5069111;28;20032;-90
2022/04/20 05:55:32;;;;;;;18.08;6.57;;;;;;;5.38;60.41;99197.44;5068406;28;20032;-90
2022/04/20 05:58:01;;;;;;;11.60;6.50;;;;;;;5.49;59.32;99169.88;5071215;28;20359;-92
2022/04/20 06:00:27;;;;;;;198.90;41.05;;;;;;;5.56;60.10;99183.06;5085650;28;20050;-93
2022/04/20 06:02:54;;;;;;;25.27;6.85;;;;;;;5.67;59.18;99191.03;5044054;28;20032;-87
2022/04/20 06:06:03;;;;;;;14.40;7.80;;;;;;;5.95;60.17;99199.25;5052048;28;20102;-94
2022/04/20 06:08:33;;;;;;;11.77;6.90;;;;;;;6.12;59.09;99169.84;5064558;28;20097;-90
2022/04/20 06:10:58;;;;;;;17.30;6.95;;;;;;;6.41;58.07;99189.28;5069091;28;20024;-90
2022/04/20 06:13:24;;;;;;;12.05;6.38;;;;;;;6.36;56.71;99155.25;5033914;28;20020;-88
2022/04/20 06:15:51;;;;;;;16.63;7.22;;;;;;;6.44;57.40;99157.50;5032033;28;20032;-90
2022/04/20 06:18:17;;;;;;;14.85;6.80;;;;;;;6.90;57.58;99177.88;5058592;28;20487;-89
2022/04/20 06:20:46;;;;;;;13.40;8.48;;;;;;;6.93;55.29;99158.66;5087342;28;20079;-91
2022/04/20 06:23:13;;;;;;;13.45;8.40;;;;;;;7.31;54.75;99170.34;5054695;28;20028;-88
2022/04/20 06:25:38;;;;;;;19.58;10.35;;;;;;;7.47;53.91;99147.97;5067550;28;20070;-89
2022/04/20 06:28:08;;;;;;;19.95;7.53;;;;;;;7.72;54.26;99158.13;5034919;28;20033;-94
2022/04/20 06:30:46;;;;;;;29.83;8.55;;;;;;;7.84;54.58;99156.09;5057918;28;20032;-91
2022/04/20 06:33:11;;;;;;;14.57;8.90;;;;;;;8.24;53.35;99170.88;5054519;28;20047;-90
2022/04/20 06:35:37;;;;;;;13.38;8.15;;;;;;;8.45;52.62;99146.88;5054567;28;20065;-91
2022/04/20 06:38:05;;;;;;;14.13;7.88;;;;;;;8.55;52.52;99156.84;5069386;28;20028;-89
2022/04/20 06:40:34;;;;;;;30.27;9.82;;;;;;;8.67;52.89;99165.50;5071525;28;20057;-91
2022/04/20 06:43:06;;;;;;;17.77;7.82;;;;;;;8.76;51.89;99139.78;5060705;28;20127;-94
2022/04/20 06:45:38;;;;;;;21.52;8.55;;;;;;;8.94;52.10;99138.50;5037806;28;20056;-94
2022/04/20 06:48:04;;;;;;;25.17;8.88;;;;;;;9.16;51.80;99159.00;5038874;28;20039;-94
2022/04/20 06:50:51;;;;;;;26.73;10.50;;;;;;;9.20;51.16;99114.41;5038973;28;20041;-94
2022/04/20 06:58:56;;;;;;;15.48;9.13;;;;;;;10.10;48.83;99138.09;5052106;28;20445;-96
2022/04/20 07:01:27;;;;;;;14.80;7.22;;;;;;;9.93;47.41;99108.00;5031272;28;20025;-95
2022/04/20 07:03:56;;;;;;;16.83;8.57;;;;;;;10.16;47.40;99112.00;5048188;28;20028;-91
2022/04/20 07:06:28;;;;;;;16.20;7.57;;;;;;;10.43;47.37;99138.59;5037121;28;20019;-94
2022/04/20 07:08:57;;;;;;;16.20;6.93;;;;;;;10.71;46.18;99140.69;5038008;28;20033;-96
2022/04/20 07:11:23;;;;;;;26.65;10.05;;;;;;;10.72;46.78;99123.44;5052338;28;20037;-95
2022/04/20 07:13:52;;;;;;;21.90;9.30;;;;;;;10.74;46.30;99109.69;5036396;28;20109;-96
2022/04/20 07:16:18;;;;;;;18.67;8.07;;;;;;;10.66;47.32;99111.06;5033886;28;20042;-89
2022/04/20 07:18:45;;;;;;;43.75;24.17;;;;;;;10.98;46.91;99120.63;5030950;28;20024;-93
2022/04/20 07:21:10;;;;;;;34.15;13.48;;;;;;;11.01;47.00;99119.28;5048379;28;20033;-94
2022/04/20 07:23:36;;;;;;;44.10;14.25;;;;;;;11.05;46.88;99128.41;5051680;28;20033;-91
2022/04/20 07:26:07;;;;;;;17.45;7.07;;;;;;;10.94;47.36;99134.94;5052920;28;20028;-92
2022/04/20 07:28:34;;;;;;;28.13;17.90;;;;;;;10.80;46.93;99121.25;5064304;28;20031;-92
2022/04/20 07:31:01;;;;;;;18.75;9.75;;;;;;;10.89;47.24;99136.59;5033574;28;20032;-91
2022/04/20 07:33:26;;;;;;;28.17;9.57;;;;;;;11.05;45.85;99104.97;5046409;28;20027;-90
2022/04/20 07:35:53;;;;;;;26.85;10.35;;;;;;;11.31;46.37;99119.09;5065255;28;20032;-90
2022/04/20 07:38:25;;;;;;;30.50;12.55;;;;;;;11.06;47.10;99092.28;5049536;28;20096;-91
2022/04/20 07:40:51;;;;;;;37.85;14.23;;;;;;;11.24;47.13;99104.31;5049595;28;20020;-93
2022/04/20 07:43:17;;;;;;;23.13;9.10;;;;;;;11.45;46.54;99119.25;5048601;28;20111;-93
2022/04/20 07:45:43;;;;;;;21.90;10.15;;;;;;;11.57;46.71;99100.03;5062014;28;20024;-93
2022/04/20 07:48:09;;;;;;;20.85;7.82;;;;;;;11.73;46.14;99098.84;5029393;28;20032;-96
2022/04/20 07:50:38;;;;;;;30.02;12.60;;;;;;;11.98;46.53;99115.13;5051303;28;20024;-94
2022/04/20 07:53:15;;;;;;;21.05;9.65;;;;;;;11.93;46.38;99116.78;5052682;28;20104;-93
2022/04/20 07:55:46;;;;;;;11.27;7.10;;;;;;;11.88;46.84;99099.78;5053321;28;20033;-92
2022/04/20 07:58:13;;;;;;;17.75;7.60;;;;;;;12.01;46.04;99101.03;5055873;28;20055;-93
2022/04/20 08:00:40;;;;;;;12.82;6.05;;;;;;;12.17;45.41;99090.91;5031817;28;20016;-93
2022/04/20 08:03:16;;;;;;;12.57;6.80;;;;;;;12.26;45.73;99098.09;5064663;28;20482;-92
2022/04/20 08:05:48;;;;;;;14.52;5.10;;;;;;;12.12;46.00;99068.28;5031674;28;20021;-94
2022/04/20 08:08:13;;;;;;;12.20;6.78;;;;;;;12.50;45.17;99086.50;5033580;28;20095;-94
2022/04/20 08:10:39;;;;;;;9.02;3.88;;;;;;;12.75;44.00;99090.78;5049145;28;20056;-93
2022/04/20 08:15:55;;;;;;;12.07;4.82;;;;;;;12.74;44.22;99075.66;5061054;28;20027;-93
2022/04/20 08:18:21;;;;;;;11.18;4.68;;;;;;;12.43;44.60;99091.44;5041695;28;20424;-89
2022/04/20 08:20:50;;;;;;;9.55;4.80;;;;;;;12.56;44.66;99089.97;5051650;28;20017;-90
2022/04/20 08:23:18;;;;;;;8.98;5.35;;;;;;;12.46;44.94;99074.66;5046919;28;20055;-92
2022/04/20 08:25:46;;;;;;;12.45;5.40;;;;;;;12.31;45.27;99084.53;5043779;28;20029;-93
2022/04/20 08:28:17;;;;;;;8.13;4.47;;;;;;;12.63;43.93;99087.69;5011575;28;20017;-92
2022/04/20 08:30:44;;;;;;;11.05;5.00;;;;;;;12.86;43.76;99107.66;5011013;28;20025;-92
2022/04/20 08:33:10;;;;;;;6.03;4.20;;;;;;;12.77;43.44;99090.50;5030873;28;20037;-92
2022/04/20 08:35:35;;;;;;;15.95;5.68;;;;;;;12.87;43.32;99085.78;5044966;28;20040;-94
2022/04/20 08:38:01;;;;;;;9.65;5.70;;;;;;;12.94;44.36;99082.69;5047967;28;20033;-94
2022/04/20 08:40:33;;;;;;;16.75;7.45;;;;;;;12.91;44.60;99096.81;5050179;28;20558;-93
2022/04/20 08:43:05;;;;;;;8.60;4.43;;;;;;;12.91;43.34;99088.69;5032832;28;20097;-94
2022/04/20 08:48:30;;;;;;;9.63;4.40;;;;;;;12.90;41.95;99066.25;5141413;27;20626;-93
2022/04/20 08:50:58;;;;;;;23.92;6.00;;;;;;;12.94;42.98;99067.28;5101943;28;20491;-95
2022/04/20 08:53:24;;;;;;;10.65;5.60;;;;;;;13.07;43.59;99091.97;5120665;28;20011;-92
2022/04/20 08:58:48;;;;;;;12.88;4.60;;;;;;;12.97;42.89;99052.41;5130319;28;20093;-96
2022/04/20 09:01:20;;;;;;;24.88;7.15;;;;;;;13.03;42.20;99089.06;5086932;28;20099;-95
2022/04/20 09:03:53;;;;;;;6.80;3.35;;;;;;;13.22;42.10;99064.75;5088076;28;20041;-94
2022/04/20 09:06:19;;;;;;;12.98;7.03;;;;;;;13.45;42.11;99067.69;5046099;28;20033;-95
2022/04/20 09:11:02;;;;;;;18.40;5.32;;;;;;;13.52;41.92;99041.03;5130972;27;374855;-93
2022/04/20 09:13:33;;;;;;;9.98;5.05;;;;;;;13.59;41.62;99049.56;5084816;28;20035;-90
2022/04/20 09:16:25;;;;;;;24.65;6.13;;;;;;;13.74;41.30;99067.47;5071151;28;20062;-92
2022/04/20 09:18:57;;;;;;;11.90;5.32;;;;;;;13.97;41.24;99081.16;5096579;28;20044;-93
2022/04/20 09:21:23;;;;;;;;;;;;;;;14.06;41.07;99080.16;5071018;28;20032;-92
2022/04/20 09:24:06;;;;;;;7.25;3.60;;;;;;;14.15;40.77;99077.53;5089506;28;19918;-93
2022/04/20 09:26:32;;;;;;;16.08;5.43;;;;;;;14.06;40.58;99068.53;5101404;28;20072;-92
2022/04/20 09:29:07;;;;;;;16.02;8.60;;;;;;;13.97;40.90;99065.72;5084387;28;20019;-91
2022/04/20 09:31:51;;;;;;;14.93;5.47;;;;;;;13.76;40.08;99059.84;5102505;28;20027;-92
2022/04/20 09:34:53;;;;;;;14.93;6.88;;;;;;;13.81;40.48;99067.06;5103455;28;20023;-91
2022/04/20 09:37:20;;;;;;;24.67;11.63;;;;;;;13.55;42.02;99040.47;5105342;28;20019;-92
2022/04/20 09:39:49;;;;;;;17.90;10.55;;;;;;;14.03;40.92;99071.81;5104115;28;20039;-91
2022/04/20 09:42:16;;;;;;;12.55;7.38;;;;;;;14.27;40.42;99063.53;5090579;28;20086;-93
2022/04/20 09:45:01;;;;;;;35.70;5.00;;;;;;;14.21;40.38;99038.44;5088272;28;20047;-92
2022/04/20 09:50:19;;;;;;;8.60;5.15;;;;;;;14.31;38.88;99038.25;5105719;28;20389;-92
2022/04/20 09:52:47;;;;;;;21.52;4.55;;;;;;;14.60;38.41;99058.03;5099945;28;20020;-93
2022/04/20 09:55:28;;;;;;;12.93;6.50;;;;;;;14.60;37.40;99039.84;5068744;28;20019;-95
2022/04/20 09:58:10;;;;;;;14.35;4.60;;;;;;;14.58;38.77;99054.81;5102133;28;20030;-92
2022/04/20 10:00:40;;;;;;;21.30;4.80;;;;;;;14.38;38.82;99031.63;5102856;28;20026;-92
2022/04/20 10:03:06;;;;;;;25.92;4.50;;;;;;;14.24;39.64;99035.16;5106003;28;20034;-93
2022/04/20 10:05:37;;;;;;;9.65;3.75;;;;;;;14.32;39.15;99036.34;5108247;28;20038;-92
2022/04/20 10:08:06;;;;;;;15.13;4.53;;;;;;;14.36;39.11;99018.41;5092159;28;20015;-94
2022/04/20 10:10:41;;;;;;;14.93;4.78;;;;;;;14.32;39.49;99018.19;5103102;28;20066;-96
2022/04/20 10:13:10;;;;;;;7.40;4.97;;;;;;;14.53;38.76;99040.25;5076569;28;20375;-93
2022/04/20 10:18:25;;;;;;;5.15;4.10;;;;;;;14.37;39.78;99030.81;5043751;28;20513;-92
2022/04/20 10:21:01;;;;;;;9.73;4.03;;;;;;;14.06;39.60;99023.28;5001444;28;20119;-90
2022/04/20 10:23:53;;;;;;;8.80;5.63;;;;;;;13.91;41.32;99026.31;4957818;28;20485;-90
2022/04/20 10:26:18;;;;;;;12.93;4.50;;;;;;;13.65;41.00;99024.03;4940275;28;20151;-92
2022/04/20 10:29:00;;;;;;;13.00;5.00;;;;;;;14.04;40.26;99022.78;4970143;28;20050;-92
2022/04/20 10:31:45;;;;;;;16.13;6.40;;;;;;;13.98;39.70;99025.91;4968577;28;20129;-88
2022/04/20 10:34:18;;;;;;;15.73;10.90;;;;;;;13.85;39.13;99032.91;4986630;28;20026;-89
2022/04/20 10:37:01;;;;;;;5.07;3.90;;;;;;;13.58;39.49;99044.47;4969537;28;20060;-92
2022/04/20 10:39:29;;;;;;;14.30;4.43;;;;;;;13.86;40.60;99048.03;4967293;28;20404;-89
2022/04/20 10:42:15;;;;;;;14.98;5.35;;;;;;;14.34;39.93;99056.63;4952239;28;20046;-91
2022/04/20 10:44:56;;;;;;;10.70;5.72;;;;;;;14.56;37.86;99052.41;5016355;28;20034;-91
2022/04/20 10:48:05;;;;;;;10.95;6.75;;;;;;;14.64;38.82;99026.50;5055490;28;20095;-93
2022/04/20 10:50:30;;;;;;;11.88;7.20;;;;;;;14.54;38.63;99017.44;5013056;28;20049;-94
2022/04/20 10:53:04;;;;;;;9.80;5.30;;;;;;;14.44;37.99;99028.50;4990101;28;20033;-92
2022/04/20 10:55:35;;;;;;;11.30;5.47;;;;;;;14.77;38.61;99057.41;4991846;28;20057;-91
2022/04/20 10:58:04;;;;;;;12.20;5.47;;;;;;;14.62;38.21;99024.09;5006205;28;20603;-91
2022/04/20 11:00:36;;;;;;;12.82;4.90;;;;;;;14.73;39.29;99030.91;4993219;28;20084;-89
2022/04/20 11:03:10;;;;;;;24.60;6.57;;;;;;;14.65;39.34;99022.69;4978679;28;20153;-91
2022/04/20 11:05:49;;;;;;;12.00;6.07;;;;;;;14.43;40.27;99023.41;5021864;28;20049;-92
2022/04/20 11:19:20;;;;;;;;;;;;;;;;;;;;;
2022/04/20 11:22:18;;;;;;;15.13;5.80;;;;;;;14.04;40.68;99044.44;5028894;28;20124;-94
2022/04/20 11:24:50;;;;;;;14.93;5.75;;;;;;;14.01;41.35;99031.53;5015084;28;20064;-94
2022/04/20 11:48:16;;;;;;;8.13;5.40;;;;;;;13.37;46.06;99027.78;5044333;28;20045;-93
2022/04/20 11:50:42;;;;;;;12.55;8.48;;;;;;;13.27;51.78;99010.56;4993334;28;20119;-93
2022/04/20 11:53:46;;;;;;;;;;;;;;;;;;;;;
2022/04/20 11:56:30;;;;;;;16.20;10.23;;;;;;;13.34;51.07;99007.53;4973361;28;20058;-94
2022/04/20 11:59:00;;;;;;;9.75;6.68;;;;;;;13.46;52.38;99018.69;4953893;28;20039;-93
2022/04/20 12:01:36;;;;;;;8.07;6.78;;;;;;;13.30;53.68;98982.16;5100117;23;20049;-94
2022/04/20 12:04:12;;;;;;;11.82;8.50;;;;;;;13.33;51.75;98993.19;5022232;28;20099;-93
2022/04/20 12:06:43;;;;;;;102.13;45.22;;;;;;;13.28;51.54;98962.69;5008306;28;20025;-93
2022/04/20 12:09:09;;;;;;;33.30;15.45;;;;;;;13.44;50.84;98984.91;5006231;28;20018;-92
2022/04/20 12:11:34;;;;;;;8.75;5.80;;;;;;;13.41;46.02;98988.22;4994090;28;20041;-93
2022/04/20 12:14:11;;;;;;;7.40;4.72;;;;;;;13.40;46.86;98989.31;5004730;28;20025;-94
2022/04/20 12:16:37;;;;;;;7.10;5.28;;;;;;;13.32;46.24;98983.50;5021184;28;20143;-93
2022/04/20 12:19:08;;;;;;;8.75;5.50;;;;;;;13.28;46.96;98978.94;4990184;28;20421;-95
2022/04/20 12:21:44;;;;;;;44.90;21.45;;;;;;;13.28;48.80;98974.34;4985983;28;20037;-91
2022/04/20 12:24:26;;;;;;;35.92;16.80;;;;;;;13.24;48.85;98959.81;5005922;28;20030;-89
2022/04/20 12:26:52;;;;;;;;;;;;;;;13.37;50.13;99000.75;4989703;28;20017;-89
2022/04/20 12:29:22;;;;;;;24.38;13.18;;;;;;;13.24;47.70;98976.03;5036551;28;19971;-88
2022/04/20 12:31:54;;;;;;;30.08;16.65;;;;;;;13.28;47.49;98997.84;5012274;28;20462;-90
2022/04/20 12:34:20;;;;;;;;;;;;;;;13.29;47.87;98996.81;5012895;28;20093;-89
2022/04/20 12:37:12;;;;;;;15.82;12.88;;;;;;;13.13;48.91;98975.38;5026327;28;19917;-92
2022/04/20 12:39:40;;;;;;;11.40;7.68;;;;;;;13.02;50.41;98957.72;4978497;28;20010;-92
2022/04/20 12:42:09;;;;;;;10.88;7.57;;;;;;;13.21;50.53;98997.44;5005705;28;20025;-93
2022/04/20 12:44:48;;;;;;;9.80;7.70;;;;;;;13.21;53.38;99000.94;4987987;28;20092;-94
2022/04/20 12:47:14;;;;;;;7.78;6.00;;;;;;;13.16;50.14;98984.81;5005140;28;20030;-91
2022/04/20 12:50:04;;;;;;;6.75;5.40;;;;;;;13.28;48.58;98995.97;5005025;28;20029;-92
2022/04/20 12:52:29;;;;;;;6.80;5.90;;;;;;;13.21;49.91;98987.41;5025306;28;20049;-92
2022/04/20 12:54:56;;;;;;;8.90;7.00;;;;;;;13.02;51.92;98987.44;4991130;28;20101;-92
2022/04/20 13:03:05;;;;;;;11.50;8.38;;;;;;;13.16;52.67;98984.81;5025715;28;20060;-95
2022/04/20 13:05:32;;;;;;;9.85;7.55;;;;;;;12.96;53.68;98950.78;5002370;28;20033;-94
2022/04/20 13:07:58;;;;;;;11.48;10.27;;;;;;;13.04;51.61;98938.53;4984645;28;20092;-95
2022/04/20 13:10:24;;;;;;;8.65;7.03;;;;;;;12.90;53.61;98949.25;4983159;28;20030;-88